createdAt,value
2019-01-22T00:00:33.912Z,19.83
2019-01-22T00:03:00.997Z,21.47
2019-01-22T00:05:28.112Z,18.73
2019-01-22T00:07:55.417Z,21.60
2019-01-22T00:10:22.683Z,21.13
2019-01-22T00:12:49.993Z,19.90
2019-01-22T00:15:17.167Z,21.30
2019-01-22T00:17:44.434Z,20.03
2019-01-22T00:20:12.117Z,19.80
2019-01-22T00:22:39.247Z,21.17
2019-01-22T00:25:07.368Z,18.63
2019-01-22T00:27:34.574Z,19.23
2019-01-22T00:30:01.818Z,20.60
2019-01-22T00:32:31.491Z,18.90
2019-01-22T00:34:58.657Z,21.37
2019-01-22T00:37:25.905Z,19.80
2019-01-22T00:39:53.121Z,20.03
2019-01-22T00:42:20.323Z,20.63
2019-01-22T00:44:47.623Z,18.80
2019-01-22T00:47:15.103Z,19.20
2019-01-22T00:49:42.292Z,20.33
2019-01-22T00:52:09.503Z,20.33
2019-01-22T00:54:36.700Z,20.83
2019-01-22T00:57:03.899Z,19.03
2019-01-22T00:59:31.109Z,18.93
2019-01-22T01:01:58.273Z,19.67
2019-01-22T01:04:25.352Z,20.23
2019-01-22T01:06:52.553Z,20.37
2019-01-22T01:09:19.700Z,19.60
2019-01-22T01:11:46.901Z,18.43
2019-01-22T01:14:14.146Z,20.57
2019-01-22T01:16:41.334Z,19.73
2019-01-22T01:19:08.804Z,23.00
2019-01-22T01:21:36.006Z,18.27
2019-01-22T01:24:03.287Z,19.97
2019-01-22T01:26:30.490Z,18.93
2019-01-22T01:28:57.988Z,19.90
2019-01-22T01:31:25.181Z,19.73
2019-01-22T01:33:52.394Z,18.50
2019-01-22T01:36:19.587Z,18.80
2019-01-22T01:38:46.789Z,19.10
2019-01-22T01:41:14.033Z,19.03
2019-01-22T01:43:41.590Z,18.60
2019-01-22T01:46:08.690Z,19.07
2019-01-22T01:48:35.863Z,18.90
2019-01-22T01:51:02.965Z,19.00
2019-01-22T01:53:30.172Z,20.10
2019-01-22T01:55:57.361Z,20.50
2019-01-22T01:58:24.597Z,19.07
2019-01-22T02:00:51.773Z,20.23
2019-01-22T02:03:19.206Z,21.17
2019-01-22T02:05:46.325Z,19.10
2019-01-22T02:08:13.823Z,20.17
2019-01-22T02:10:40.984Z,18.33
2019-01-22T02:13:13.865Z,20.33
2019-01-22T02:15:55.805Z,17.27
2019-01-22T02:18:59.119Z,19.40
2019-01-22T02:22:03.964Z,18.97
2019-01-22T02:24:57.458Z,19.50
2019-01-22T02:27:54.143Z,19.20
2019-01-22T02:30:46.304Z,19.73
2019-01-22T02:33:45.127Z,19.50
2019-01-22T02:36:41.743Z,20.10
2019-01-22T02:39:44.673Z,19.07
2019-01-22T02:42:57.471Z,20.33
2019-01-22T02:45:47.059Z,20.30
2019-01-22T02:48:20.602Z,20.80
2019-01-22T02:51:25.488Z,19.40
2019-01-22T02:54:20.766Z,19.63
2019-01-22T02:57:29.969Z,20.07
2019-01-22T03:00:38.866Z,18.50
2019-01-22T03:03:49.334Z,18.90
2019-01-22T03:07:19.503Z,18.47
2019-01-22T03:09:56.440Z,18.50
2019-01-22T03:13:16.177Z,17.87
2019-01-22T03:16:14.698Z,19.73
2019-01-22T03:19:03.892Z,20.13
2019-01-22T03:22:18.811Z,20.07
2019-01-22T03:25:34.161Z,19.37
2019-01-22T03:28:26.950Z,19.27
2019-01-22T03:31:32.877Z,18.90
2019-01-22T03:34:26.819Z,21.27
2019-01-22T03:37:31.891Z,20.00
2019-01-22T03:40:27.865Z,19.20
2019-01-22T03:43:27.529Z,19.87
2019-01-22T03:46:35.826Z,18.97
2019-01-22T03:49:25.520Z,19.73
2019-01-22T03:52:13.018Z,21.60
2019-01-22T03:55:34.218Z,21.53
2019-01-22T03:58:07.606Z,18.60
2019-01-22T04:00:53.574Z,19.80
2019-01-22T04:03:20.736Z,20.60
2019-01-22T04:05:50.439Z,18.63
2019-01-22T04:08:17.654Z,20.43
2019-01-22T04:10:57.084Z,18.83
2019-01-22T04:13:24.398Z,20.80
2019-01-22T04:15:51.632Z,20.20
2019-01-22T04:18:18.816Z,21.37
2019-01-22T04:20:47.550Z,21.40
2019-01-22T04:23:36.072Z,20.60
2019-01-22T04:26:40.659Z,19.90
2019-01-22T04:29:22.213Z,18.67
2019-01-22T04:32:04.499Z,19.97
2019-01-22T04:35:07.139Z,18.70
2019-01-22T04:38:23.160Z,20.67
2019-01-22T04:41:39.748Z,21.43
2019-01-22T04:44:30.808Z,18.63
2019-01-22T04:47:42.586Z,17.67
2019-01-22T04:50:32.745Z,18.20
2019-01-22T04:53:16.965Z,19.40
2019-01-22T04:56:24.783Z,20.10
2019-01-22T04:59:25.086Z,20.20
2019-01-22T05:02:43.505Z,20.50
2019-01-22T05:05:33.673Z,19.60
2019-01-22T05:08:38.061Z,19.57
2019-01-22T05:11:24.546Z,21.27
2019-01-22T05:14:45.674Z,21.50
2019-01-22T05:18:06.236Z,22.10
2019-01-22T05:20:49.353Z,19.27
2019-01-22T05:23:54.014Z,22.00
2019-01-22T05:27:00.198Z,21.10
2019-01-22T05:29:39.895Z,22.00
2019-01-22T05:32:32.895Z,22.20
2019-01-22T05:35:42.192Z,22.87
2019-01-22T05:38:42.860Z,21.57
2019-01-22T05:41:45.711Z,20.53
2019-01-22T05:44:41.197Z,21.50
2019-01-22T05:47:36.034Z,23.70
2019-01-22T05:50:39.164Z,21.10
2019-01-22T05:53:30.451Z,21.80
2019-01-22T05:56:06.013Z,20.03
2019-01-22T05:59:16.342Z,23.10
2019-01-22T06:02:02.337Z,20.30
2019-01-22T06:05:20.224Z,21.17
2019-01-22T06:08:13.844Z,22.93
2019-01-22T06:11:20.338Z,22.77
2019-01-22T06:14:25.738Z,22.73
2019-01-22T06:17:32.851Z,22.27
2019-01-22T06:20:37.703Z,23.17
2019-01-22T06:23:45.566Z,22.83
2019-01-22T06:26:40.670Z,22.87
2019-01-22T06:29:49.434Z,23.00
2019-01-22T06:33:01.588Z,21.07
2019-01-22T06:35:57.772Z,21.40
2019-01-22T06:39:04.910Z,18.97
2019-01-22T06:42:32.381Z,20.40
2019-01-22T06:45:47.407Z,19.93
2019-01-22T06:48:57.852Z,22.10
2019-01-22T06:51:44.880Z,23.10
2019-01-22T06:55:00.095Z,23.40
2019-01-22T06:58:10.376Z,21.07
2019-01-22T07:01:08.750Z,22.47
2019-01-22T07:03:47.343Z,21.80
2019-01-22T07:06:56.439Z,22.33
2019-01-22T07:10:00.318Z,22.83
2019-01-22T07:12:54.483Z,22.70
2019-01-22T07:16:01.425Z,21.73
2019-01-22T07:18:40.721Z,21.90
2019-01-22T07:22:03.644Z,23.20
2019-01-22T07:25:11.857Z,22.60
2019-01-22T07:28:14.215Z,20.53
2019-01-22T07:30:59.300Z,24.20
2019-01-22T07:33:52.080Z,24.10
2019-01-22T07:37:00.442Z,24.43
2019-01-22T07:39:59.588Z,22.20
2019-01-22T07:42:44.973Z,24.37
2019-01-22T07:45:42.510Z,21.47
2019-01-22T07:48:14.385Z,20.57
2019-01-22T07:51:20.474Z,21.73
2019-01-22T07:54:28.513Z,24.43
2019-01-22T07:57:55.808Z,25.57
2019-01-22T08:00:50.809Z,26.07
2019-01-22T08:04:17.056Z,25.13
2019-01-22T08:07:02.202Z,24.87
2019-01-22T08:10:22.284Z,27.20
2019-01-22T08:13:39.176Z,28.17
2019-01-22T08:16:57.059Z,26.50
2019-01-22T08:19:59.465Z,26.10
2019-01-22T08:23:13.320Z,28.30
2019-01-22T08:26:04.387Z,29.47
2019-01-22T08:28:58.656Z,27.90
2019-01-22T08:32:18.167Z,30.97
2019-01-22T08:35:27.825Z,27.57
2019-01-22T08:38:16.129Z,31.37
2019-01-22T08:41:32.765Z,30.07
2019-01-22T08:44:30.819Z,29.83
2019-01-22T08:47:30.462Z,31.50
2019-01-22T08:50:33.213Z,31.97
2019-01-22T08:53:53.901Z,27.43
2019-01-22T08:57:00.265Z,28.87
2019-01-22T08:59:51.956Z,31.90
2019-01-22T09:02:54.004Z,31.47
2019-01-22T09:06:11.525Z,27.53
2019-01-22T09:08:57.254Z,31.73
2019-01-22T09:12:12.075Z,30.10
2019-01-22T09:15:05.473Z,31.70
2019-01-22T09:18:10.871Z,29.37
2019-01-22T09:21:25.373Z,29.83
2019-01-22T09:24:10.668Z,30.77
2019-01-22T09:27:14.501Z,30.37
2019-01-22T09:30:12.366Z,29.67
2019-01-22T09:33:23.555Z,29.93
2019-01-22T09:36:34.139Z,29.90
2019-01-22T09:39:01.351Z,27.87
2019-01-22T09:41:29.255Z,29.13
2019-01-22T09:43:56.533Z,27.47
2019-01-22T09:46:23.743Z,28.60
2019-01-22T09:48:51.314Z,27.50
2019-01-22T09:51:18.546Z,29.83
2019-01-22T09:53:45.739Z,26.30
2019-01-22T09:56:12.890Z,26.50
2019-01-22T09:58:40.113Z,29.80
2019-01-22T10:01:07.351Z,30.30
2019-01-22T10:03:34.554Z,28.83
2019-01-22T10:06:01.824Z,30.27
2019-01-22T10:08:29.092Z,30.23
2019-01-22T10:10:56.504Z,30.10
2019-01-22T10:13:23.751Z,29.37
2019-01-22T10:15:51.127Z,29.47
2019-01-22T10:18:18.322Z,30.77
2019-01-22T10:20:45.427Z,28.10
2019-01-22T10:23:14.057Z,31.30
2019-01-22T10:25:41.558Z,28.23
2019-01-22T10:28:08.782Z,27.63
2019-01-22T10:30:35.932Z,27.10
2019-01-22T10:33:03.041Z,25.40
2019-01-22T10:35:30.237Z,26.43
2019-01-22T10:37:57.362Z,26.80
2019-01-22T10:40:24.656Z,27.17
2019-01-22T10:42:51.923Z,25.70
2019-01-22T10:45:19.540Z,29.30
2019-01-22T10:47:46.646Z,25.83
2019-01-22T10:50:15.400Z,27.83
2019-01-22T10:52:42.580Z,26.47
2019-01-22T10:55:11.109Z,27.47
2019-01-22T10:57:38.400Z,26.73
2019-01-22T11:00:09.459Z,25.57
2019-01-22T11:02:36.684Z,27.37
2019-01-22T11:05:07.083Z,28.27
2019-01-22T11:07:34.501Z,26.53
2019-01-22T11:10:01.797Z,30.23
2019-01-22T11:12:29.010Z,28.10
2019-01-22T11:14:56.142Z,27.70
2019-01-22T11:17:23.322Z,29.37
2019-01-22T11:19:50.419Z,28.67
2019-01-22T11:22:17.627Z,26.43
2019-01-22T11:24:44.934Z,30.53
2019-01-22T11:27:12.154Z,28.37
2019-01-22T11:29:39.393Z,30.47
2019-01-22T11:32:06.654Z,29.30
2019-01-22T11:34:33.879Z,29.10
2019-01-22T11:37:01.077Z,31.30
2019-01-22T11:39:28.254Z,29.03
2019-01-22T11:41:55.467Z,30.03
2019-01-22T11:44:22.705Z,30.60
2019-01-22T11:46:49.902Z,29.93
2019-01-22T11:49:23.202Z,29.83
2019-01-22T11:51:46.281Z,29.30
2019-01-22T11:54:13.503Z,30.50
2019-01-22T11:56:41.175Z,30.63
2019-01-22T11:59:08.357Z,28.40
2019-01-22T12:01:35.521Z,29.07
2019-01-22T12:04:02.955Z,28.83
2019-01-22T12:06:30.493Z,28.33
2019-01-22T12:08:57.686Z,28.33
2019-01-22T12:11:24.919Z,27.33
2019-01-22T12:13:54.085Z,28.53
2019-01-22T12:16:21.244Z,29.60
2019-01-22T12:18:48.547Z,28.17
2019-01-22T12:21:15.792Z,28.70
2019-01-22T12:23:50.071Z,28.47
2019-01-22T12:26:17.284Z,28.97
2019-01-22T12:28:44.514Z,25.10
2019-01-22T12:31:12.058Z,27.07
2019-01-22T12:33:39.558Z,27.80
2019-01-22T12:36:06.666Z,25.33
2019-01-22T12:38:33.919Z,25.10
2019-01-22T12:41:01.144Z,24.90
2019-01-22T12:43:28.247Z,25.20
2019-01-22T12:45:55.446Z,24.00
2019-01-22T12:48:22.534Z,23.40
2019-01-22T12:50:49.841Z,23.10
2019-01-22T12:53:17.093Z,22.50
2019-01-22T12:55:44.278Z,20.80
2019-01-22T12:58:11.490Z,22.07
2019-01-22T13:00:38.919Z,21.33
2019-01-22T13:03:06.635Z,21.17
2019-01-22T13:05:57.026Z,22.20
2019-01-22T13:08:24.227Z,22.47
2019-01-22T13:10:51.440Z,21.30
2019-01-22T13:13:18.690Z,21.97
2019-01-22T13:15:45.892Z,22.00
2019-01-22T13:18:12.975Z,21.90
2019-01-22T13:20:41.024Z,22.83
2019-01-22T13:23:08.499Z,23.03
2019-01-22T13:25:35.735Z,21.67
2019-01-22T13:28:02.988Z,22.17
2019-01-22T13:30:30.128Z,20.67
2019-01-22T13:32:57.479Z,21.67
2019-01-22T13:35:24.603Z,22.73
2019-01-22T13:37:51.807Z,20.80
2019-01-22T13:40:19.062Z,23.70
2019-01-22T13:42:46.363Z,21.20
2019-01-22T13:45:16.379Z,18.60
2019-01-22T13:47:43.496Z,20.10
2019-01-22T13:50:13.202Z,19.57
2019-01-22T13:52:40.708Z,21.03
2019-01-22T13:55:10.613Z,19.00
2019-01-22T13:57:37.821Z,20.20
2019-01-22T14:00:09.279Z,20.00
2019-01-22T14:02:36.541Z,20.30
2019-01-22T14:05:04.560Z,19.07
2019-01-22T14:07:31.768Z,20.40
2019-01-22T14:09:59.045Z,19.93
2019-01-22T14:12:26.187Z,19.37
2019-01-22T14:14:53.448Z,17.37
2019-01-22T14:17:20.594Z,17.77
2019-01-22T14:19:47.964Z,16.83
2019-01-22T14:22:15.096Z,16.60
2019-01-22T14:24:42.229Z,16.10
2019-01-22T14:27:09.617Z,14.50
2019-01-22T14:29:38.078Z,15.97
2019-01-22T14:32:08.138Z,15.87
2019-01-22T14:34:35.308Z,16.03
2019-01-22T14:37:02.586Z,15.93
2019-01-22T14:39:29.790Z,15.67
2019-01-22T14:41:56.960Z,16.47
2019-01-22T14:44:24.179Z,15.17
2019-01-22T14:46:51.380Z,14.27
2019-01-22T14:49:18.710Z,15.23
2019-01-22T14:51:46.560Z,15.33
2019-01-22T14:54:13.773Z,14.73
2019-01-22T14:56:41.480Z,12.93
2019-01-22T14:59:08.612Z,15.10
2019-01-22T15:01:35.780Z,14.50
2019-01-22T15:04:03.129Z,14.83
2019-01-22T15:06:30.337Z,13.60
2019-01-22T15:08:57.569Z,13.83
2019-01-22T15:11:24.824Z,12.37
2019-01-22T15:13:53.078Z,14.07
2019-01-22T15:16:21.285Z,12.47
2019-01-22T15:18:48.779Z,14.30
2019-01-22T15:21:16.276Z,13.50
2019-01-22T15:23:44.571Z,12.03
2019-01-22T15:26:11.950Z,11.90
2019-01-22T15:28:39.976Z,13.30
2019-01-22T15:31:07.352Z,12.13
2019-01-22T15:33:37.578Z,12.80
2019-01-22T15:36:06.835Z,12.10
2019-01-22T15:38:34.068Z,12.53
2019-01-22T15:41:01.281Z,11.43
2019-01-22T15:43:30.654Z,13.50
2019-01-22T15:45:59.929Z,12.03
2019-01-22T15:48:27.136Z,10.80
2019-01-22T15:50:56.725Z,12.50
2019-01-22T15:53:23.963Z,11.00
2019-01-22T15:55:51.295Z,10.93
2019-01-22T15:58:19.575Z,10.50
2019-01-22T16:00:46.748Z,10.87
2019-01-22T16:03:13.966Z,10.70
2019-01-22T16:05:41.077Z,12.03
2019-01-22T16:08:08.593Z,12.17
2019-01-22T16:10:35.808Z,11.70
2019-01-22T16:13:03.719Z,10.57
2019-01-22T16:15:30.889Z,11.83
2019-01-22T16:17:58.442Z,11.00
2019-01-22T16:20:26.662Z,11.33
2019-01-22T16:22:54.683Z,11.30
2019-01-22T16:25:22.134Z,12.07
2019-01-22T16:27:49.227Z,11.77
2019-01-22T16:30:18.329Z,13.77
2019-01-22T16:32:45.728Z,12.70
2019-01-22T16:35:14.621Z,11.83
2019-01-22T16:37:41.833Z,10.97
2019-01-22T16:40:10.075Z,12.60
2019-01-22T16:42:37.236Z,11.60
2019-01-22T16:45:06.303Z,12.77
2019-01-22T16:47:33.520Z,12.33
2019-01-22T16:50:01.022Z,12.83
2019-01-22T16:52:28.243Z,12.40
2019-01-22T16:54:55.751Z,12.37
2019-01-22T16:57:22.931Z,12.30
2019-01-22T16:59:50.123Z,12.60
2019-01-22T17:02:17.954Z,12.87
2019-01-22T17:04:45.127Z,12.87
2019-01-22T17:07:12.414Z,12.73
2019-01-22T17:09:39.881Z,12.80
2019-01-22T17:12:07.079Z,14.40
2019-01-22T17:14:34.207Z,13.10
2019-01-22T17:17:01.403Z,13.97
2019-01-22T17:19:28.895Z,12.17
2019-01-22T17:21:56.164Z,13.90
2019-01-22T17:24:23.414Z,14.03
2019-01-22T17:26:50.612Z,12.70
2019-01-22T17:29:17.828Z,15.70
2019-01-22T17:32:04.833Z,12.60
2019-01-22T17:34:41.076Z,12.40
2019-01-22T17:37:08.418Z,14.70
2019-01-22T17:39:35.594Z,13.77
2019-01-22T17:42:02.907Z,13.10
2019-01-22T17:44:30.252Z,13.60
2019-01-22T17:46:57.474Z,13.57
2019-01-22T17:49:24.643Z,13.30
2019-01-22T17:51:51.888Z,13.47
2019-01-22T17:54:19.091Z,13.20
2019-01-22T17:56:46.464Z,14.07
2019-01-22T17:59:13.782Z,13.93
2019-01-22T18:01:40.863Z,13.77
2019-01-22T18:04:08.076Z,14.27
2019-01-22T18:06:35.220Z,14.37
2019-01-22T18:09:05.355Z,14.00
2019-01-22T18:11:37.028Z,12.83
2019-01-22T18:14:04.334Z,15.30
2019-01-22T18:16:31.624Z,15.47
2019-01-22T18:19:03.957Z,14.47
2019-01-22T18:21:33.117Z,15.03
2019-01-22T18:24:00.633Z,14.97
2019-01-22T18:26:27.856Z,14.87
2019-01-22T18:28:55.094Z,16.03
2019-01-22T18:31:22.315Z,14.93
2019-01-22T18:33:49.571Z,15.30
2019-01-22T18:36:16.828Z,15.17
2019-01-22T18:38:44.070Z,14.60
2019-01-22T18:41:11.300Z,15.10
2019-01-22T18:43:38.435Z,14.33
2019-01-22T18:46:06.537Z,16.20
2019-01-22T18:48:33.716Z,14.80
2019-01-22T18:51:00.823Z,16.37
2019-01-22T18:53:28.047Z,15.50
2019-01-22T18:55:55.237Z,15.83
2019-01-22T18:58:22.896Z,16.17
2019-01-22T19:00:50.151Z,16.83
2019-01-22T19:03:17.437Z,14.90
2019-01-22T19:05:44.910Z,16.43
2019-01-22T19:08:12.126Z,15.90
2019-01-22T19:10:39.504Z,16.93
2019-01-22T19:13:06.962Z,17.90
2019-01-22T19:15:34.175Z,16.60
2019-01-22T19:18:01.718Z,17.67
2019-01-22T19:20:29.540Z,17.20
2019-01-22T19:22:57.036Z,15.73
2019-01-22T19:25:25.717Z,17.93
2019-01-22T19:27:53.029Z,16.33
2019-01-22T19:30:22.094Z,15.83
2019-01-22T19:32:49.332Z,15.27
2019-01-22T19:35:16.454Z,14.73
2019-01-22T19:37:43.708Z,17.50
2019-01-22T19:40:12.006Z,15.37
2019-01-22T19:42:39.213Z,13.90
2019-01-22T19:45:09.929Z,15.00
2019-01-22T19:47:37.095Z,16.07
2019-01-22T19:50:06.526Z,15.00
2019-01-22T19:52:34.122Z,15.90
2019-01-22T19:55:01.235Z,16.40
2019-01-22T19:57:28.546Z,16.63
2019-01-22T19:59:56.015Z,18.10
2019-01-22T20:02:23.243Z,18.57
2019-01-22T20:04:50.453Z,18.67
2019-01-22T20:07:17.677Z,18.30
2019-01-22T20:09:44.879Z,19.00
2019-01-22T20:12:12.418Z,19.53
2019-01-22T20:14:39.572Z,20.17
2019-01-22T20:17:06.761Z,20.73
2019-01-22T20:19:33.920Z,19.00
2019-01-22T20:22:01.143Z,18.20
2019-01-22T20:24:28.361Z,19.43
2019-01-22T20:26:55.465Z,21.20
2019-01-22T20:29:22.721Z,18.90
2019-01-22T20:31:49.893Z,18.97
2019-01-22T20:34:17.306Z,20.30
2019-01-22T20:36:44.556Z,18.97
2019-01-22T20:39:12.033Z,20.70
2019-01-22T20:41:39.269Z,20.53
2019-01-22T20:44:06.462Z,20.13
2019-01-22T20:46:33.668Z,20.00
2019-01-22T20:49:00.895Z,18.47
2019-01-22T20:51:28.170Z,19.43
2019-01-22T20:53:55.324Z,17.63
2019-01-22T20:56:22.672Z,18.57
2019-01-22T20:58:49.808Z,21.83
2019-01-22T21:01:17.016Z,18.80
2019-01-22T21:03:44.220Z,17.23
2019-01-22T21:06:11.689Z,20.37
2019-01-22T21:08:38.894Z,18.53
2019-01-22T21:11:07.247Z,20.07
2019-01-22T21:13:34.422Z,16.70
2019-01-22T21:16:01.787Z,18.63
2019-01-22T21:18:29.689Z,19.73
2019-01-22T21:20:56.801Z,18.10
2019-01-22T21:23:25.138Z,17.40
2019-01-22T21:25:52.389Z,17.00
2019-01-22T21:28:20.043Z,20.47
2019-01-22T21:30:49.835Z,18.53
2019-01-22T21:33:17.106Z,18.90
2019-01-22T21:35:44.346Z,19.40
2019-01-22T21:38:11.569Z,17.20
2019-01-22T21:40:38.669Z,17.00
2019-01-22T21:43:06.297Z,17.47
2019-01-22T21:45:33.615Z,18.00
2019-01-22T21:48:00.717Z,16.83
2019-01-22T21:50:28.012Z,17.63
2019-01-22T21:52:57.080Z,18.07
2019-01-22T21:55:24.605Z,16.77
2019-01-22T21:57:51.887Z,18.57
2019-01-22T22:00:20.711Z,18.83
2019-01-22T22:02:48.099Z,17.97
2019-01-22T22:05:16.781Z,17.43
2019-01-22T22:07:44.026Z,18.57
2019-01-22T22:10:13.748Z,16.53
2019-01-22T22:12:41.120Z,17.50
2019-01-22T22:15:09.404Z,18.70
2019-01-22T22:17:36.494Z,17.97
2019-01-22T22:20:05.440Z,17.83
2019-01-22T22:22:33.228Z,18.37
2019-01-22T22:25:00.438Z,18.77
2019-01-22T22:27:27.517Z,18.67
2019-01-22T22:29:54.787Z,19.40
2019-01-22T22:32:22.074Z,17.00
2019-01-22T22:34:49.269Z,17.40
2019-01-22T22:37:16.713Z,18.47
2019-01-22T22:39:43.910Z,18.27
2019-01-22T22:42:11.149Z,17.53
2019-01-22T22:44:38.326Z,19.70
2019-01-22T22:47:05.794Z,19.33
2019-01-22T22:49:33.269Z,20.37
2019-01-22T22:52:00.501Z,17.60
2019-01-22T22:54:27.668Z,18.67
2019-01-22T22:56:55.139Z,17.33
2019-01-22T22:59:22.573Z,19.67
2019-01-22T23:01:49.790Z,18.07
2019-01-22T23:04:17.965Z,18.83
2019-01-22T23:06:45.237Z,18.20
2019-01-22T23:09:12.301Z,20.20
2019-01-22T23:11:39.621Z,18.20
2019-01-22T23:14:06.845Z,18.23
2019-01-22T23:16:34.083Z,17.23
2019-01-22T23:19:01.259Z,17.90
2019-01-22T23:21:28.549Z,19.97
2019-01-22T23:23:55.975Z,15.77
2019-01-22T23:26:23.245Z,18.17
2019-01-22T23:28:50.456Z,18.60
2019-01-22T23:31:17.640Z,18.03
2019-01-22T23:33:44.847Z,17.93
2019-01-22T23:36:12.184Z,20.10
2019-01-22T23:38:39.713Z,17.50
2019-01-22T23:41:07.058Z,17.63
2019-01-22T23:43:34.286Z,19.10
2019-01-22T23:46:01.358Z,18.40
2019-01-22T23:48:28.833Z,14.30
2019-01-22T23:50:55.934Z,18.70
2019-01-22T23:53:23.148Z,16.40
2019-01-22T23:55:50.492Z,15.33
2019-01-22T23:58:17.729Z,17.03
